sensor_id;sensor_type;location;lat;lon;timestamp;P1;durP1;ratioP1;P2;durP2;ratioP2
61104;SDS011;46987;32.638;-115.438;2023-04-15T00:00:39;10.10;;;2.03;;
61104;SDS011;46987;32.638;-115.438;2023-04-15T00:03:06;8.77;;;2.47;;
61104;SDS011;46987;32.638;-115.438;2023-04-15T00:05:34;11.95;;;2.30;;
61104;SDS011;46987;32.638;-115.438;2023-04-15T00:08:03;7.20;;;1.85;;
61104;SDS011;46987;32.638;-115.438;2023-04-15T00:10:30;13.70;;;2.47;;
61104;SDS011;46987;32.638;-115.438;2023-04-15T00:12:57;8.13;;;2.08;;
61104;SDS011;46987;32.638;-115.438;2023-04-15T00:15:24;9.20;;;1.80;;
61104;SDS011;46987;32.638;-115.438;2023-04-15T00:17:50;8.90;;;2.20;;
61104;SDS011;46987;32.638;-115.438;2023-04-15T00:20:17;9.95;;;2.28;;
61104;SDS011;46987;32.638;-115.438;2023-04-15T00:22:44;9.05;;;1.90;;
61104;SDS011;46987;32.638;-115.438;2023-04-15T00:25:13;7.50;;;1.95;;
61104;SDS011;46987;32.638;-115.438;2023-04-15T00:27:40;13.88;;;3.15;;
61104;SDS011;46987;32.638;-115.438;2023-04-15T00:30:07;12.32;;;3.00;;
61104;SDS011;46987;32.638;-115.438;2023-04-15T00:32:34;8.18;;;2.60;;
61104;SDS011;46987;32.638;-115.438;2023-04-15T00:35:01;7.85;;;2.38;;
61104;SDS011;46987;32.638;-115.438;2023-04-15T00:37:28;12.65;;;2.17;;
61104;SDS011;46987;32.638;-115.438;2023-04-15T00:39:55;9.80;;;2.08;;
61104;SDS011;46987;32.638;-115.438;2023-04-15T00:42:24;12.15;;;2.42;;
61104;SDS011;46987;32.638;-115.438;2023-04-15T00:44:52;9.10;;;2.17;;
61104;SDS011;46987;32.638;-115.438;2023-04-15T00:47:18;6.38;;;1.80;;
61104;SDS011;46987;32.638;-115.438;2023-04-15T00:49:45;8.60;;;1.80;;
61104;SDS011;46987;32.638;-115.438;2023-04-15T00:52:12;10.82;;;2.15;;
61104;SDS011;46987;32.638;-115.438;2023-04-15T00:54:38;10.85;;;2.42;;
61104;SDS011;46987;32.638;-115.438;2023-04-15T00:57:05;9.02;;;2.25;;
61104;SDS011;46987;32.638;-115.438;2023-04-15T00:59:35;9.02;;;1.95;;
61104;SDS011;46987;32.638;-115.438;2023-04-15T01:02:02;8.50;;;1.75;;
61104;SDS011;46987;32.638;-115.438;2023-04-15T01:04:28;8.23;;;2.03;;
61104;SDS011;46987;32.638;-115.438;2023-04-15T01:06:55;9.40;;;1.95;;
61104;SDS011;46987;32.638;-115.438;2023-04-15T01:09:22;10.93;;;2.80;;
61104;SDS011;46987;32.638;-115.438;2023-04-15T01:11:50;8.60;;;3.30;;
61104;SDS011;46987;32.638;-115.438;2023-04-15T01:14:17;10.73;;;4.63;;
61104;SDS011;46987;32.638;-115.438;2023-04-15T01:16:45;9.63;;;3.83;;
61104;SDS011;46987;32.638;-115.438;2023-04-15T01:19:12;12.25;;;3.75;;
61104;SDS011;46987;32.638;-115.438;2023-04-15T01:21:39;8.63;;;2.03;;
61104;SDS011;46987;32.638;-115.438;2023-04-15T01:24:07;10.13;;;2.33;;
61104;SDS011;46987;32.638;-115.438;2023-04-15T01:26:41;6.78;;;2.15;;
61104;SDS011;46987;32.638;-115.438;2023-04-15T01:29:08;11.15;;;2.45;;
61104;SDS011;46987;32.638;-115.438;2023-04-15T01:31:35;8.35;;;2.00;;
61104;SDS011;46987;32.638;-115.438;2023-04-15T01:34:02;13.18;;;2.55;;
61104;SDS011;46987;32.638;-115.438;2023-04-15T01:36:29;7.78;;;2.42;;
61104;SDS011;46987;32.638;-115.438;2023-04-15T01:38:55;7.25;;;1.70;;
61104;SDS011;46987;32.638;-115.438;2023-04-15T01:41:24;8.48;;;2.20;;
61104;SDS011;46987;32.638;-115.438;2023-04-15T01:43:53;10.65;;;2.58;;
61104;SDS011;46987;32.638;-115.438;2023-04-15T01:46:20;14.50;;;2.95;;
61104;SDS011;46987;32.638;-115.438;2023-04-15T01:48:47;10.40;;;1.85;;
61104;SDS011;46987;32.638;-115.438;2023-04-15T01:51:13;11.40;;;1.85;;
61104;SDS011;46987;32.638;-115.438;2023-04-15T01:53:40;12.57;;;2.97;;
61104;SDS011;46987;32.638;-115.438;2023-04-15T01:56:07;8.30;;;2.75;;
61104;SDS011;46987;32.638;-115.438;2023-04-15T01:58:34;8.52;;;2.65;;
61104;SDS011;46987;32.638;-115.438;2023-04-15T02:01:03;11.88;;;2.70;;
61104;SDS011;46987;32.638;-115.438;2023-04-15T02:03:31;15.73;;;2.60;;
61104;SDS011;46987;32.638;-115.438;2023-04-15T02:05:58;9.07;;;2.38;;
61104;SDS011;46987;32.638;-115.438;2023-04-15T02:08:24;9.70;;;2.75;;
61104;SDS011;46987;32.638;-115.438;2023-04-15T02:10:51;11.63;;;3.28;;
61104;SDS011;46987;32.638;-115.438;2023-04-15T02:13:18;16.52;;;2.90;;
61104;SDS011;46987;32.638;-115.438;2023-04-15T02:15:48;9.68;;;2.35;;
61104;SDS011;46987;32.638;-115.438;2023-04-15T02:18:16;12.73;;;3.30;;
61104;SDS011;46987;32.638;-115.438;2023-04-15T02:20:43;15.98;;;3.22;;
61104;SDS011;46987;32.638;-115.438;2023-04-15T02:23:10;11.02;;;2.50;;
61104;SDS011;46987;32.638;-115.438;2023-04-15T02:25:37;16.67;;;3.70;;
61104;SDS011;46987;32.638;-115.438;2023-04-15T02:28:06;9.90;;;2.60;;
61104;SDS011;46987;32.638;-115.438;2023-04-15T02:30:33;9.20;;;2.70;;
61104;SDS011;46987;32.638;-115.438;2023-04-15T02:33:01;9.45;;;2.75;;
61104;SDS011;46987;32.638;-115.438;2023-04-15T02:35:29;14.50;;;2.70;;
61104;SDS011;46987;32.638;-115.438;2023-04-15T02:37:56;10.88;;;3.15;;
61104;SDS011;46987;32.638;-115.438;2023-04-15T02:40:23;13.25;;;2.72;;
61104;SDS011;46987;32.638;-115.438;2023-04-15T02:42:50;10.60;;;3.08;;
61104;SDS011;46987;32.638;-115.438;2023-04-15T02:45:18;12.27;;;3.30;;
61104;SDS011;46987;32.638;-115.438;2023-04-15T02:47:48;12.77;;;3.33;;
61104;SDS011;46987;32.638;-115.438;2023-04-15T02:50:15;13.52;;;4.10;;
61104;SDS011;46987;32.638;-115.438;2023-04-15T02:52:44;16.33;;;4.45;;
61104;SDS011;46987;32.638;-115.438;2023-04-15T02:55:11;16.35;;;5.78;;
61104;SDS011;46987;32.638;-115.438;2023-04-15T02:57:40;12.02;;;4.13;;
61104;SDS011;46987;32.638;-115.438;2023-04-15T03:00:08;15.13;;;4.13;;
61104;SDS011;46987;32.638;-115.438;2023-04-15T03:02:40;10.40;;;4.13;;
61104;SDS011;46987;32.638;-115.438;2023-04-15T03:05:10;10.48;;;2.88;;
61104;SDS011;46987;32.638;-115.438;2023-04-15T03:07:39;12.30;;;3.08;;
61104;SDS011;46987;32.638;-115.438;2023-04-15T03:10:08;10.10;;;2.90;;
61104;SDS011;46987;32.638;-115.438;2023-04-15T03:12:36;21.00;;;4.53;;
61104;SDS011;46987;32.638;-115.438;2023-04-15T03:15:02;11.85;;;3.00;;
61104;SDS011;46987;32.638;-115.438;2023-04-15T03:17:35;11.68;;;3.53;;
61104;SDS011;46987;32.638;-115.438;2023-04-15T03:20:03;16.13;;;3.78;;
61104;SDS011;46987;32.638;-115.438;2023-04-15T03:22:30;15.32;;;3.50;;
61104;SDS011;46987;32.638;-115.438;2023-04-15T03:24:57;15.95;;;3.60;;
61104;SDS011;46987;32.638;-115.438;2023-04-15T03:27:25;19.17;;;4.15;;
61104;SDS011;46987;32.638;-115.438;2023-04-15T03:29:54;13.05;;;3.50;;
61104;SDS011;46987;32.638;-115.438;2023-04-15T03:32:24;11.38;;;3.47;;
61104;SDS011;46987;32.638;-115.438;2023-04-15T03:34:50;16.98;;;4.03;;
61104;SDS011;46987;32.638;-115.438;2023-04-15T03:37:17;14.63;;;3.47;;
61104;SDS011;46987;32.638;-115.438;2023-04-15T03:39:44;15.32;;;4.07;;
61104;SDS011;46987;32.638;-115.438;2023-04-15T03:42:11;23.13;;;4.55;;
61104;SDS011;46987;32.638;-115.438;2023-04-15T03:44:39;23.02;;;4.63;;
61104;SDS011;46987;32.638;-115.438;2023-04-15T03:47:06;19.50;;;4.40;;
61104;SDS011;46987;32.638;-115.438;2023-04-15T03:49:34;18.65;;;4.40;;
61104;SDS011;46987;32.638;-115.438;2023-04-15T03:52:01;18.65;;;4.47;;
61104;SDS011;46987;32.638;-115.438;2023-04-15T03:54:28;17.40;;;4.03;;
61104;SDS011;46987;32.638;-115.438;2023-04-15T03:56:54;15.68;;;4.15;;
61104;SDS011;46987;32.638;-115.438;2023-04-15T03:59:21;18.08;;;4.20;;
61104;SDS011;46987;32.638;-115.438;2023-04-15T04:01:50;17.55;;;4.38;;
61104;SDS011;46987;32.638;-115.438;2023-04-15T04:04:17;15.38;;;4.63;;
61104;SDS011;46987;32.638;-115.438;2023-04-15T04:06:43;16.08;;;4.78;;
61104;SDS011;46987;32.638;-115.438;2023-04-15T04:09:10;19.88;;;6.90;;
61104;SDS011;46987;32.638;-115.438;2023-04-15T04:11:36;28.40;;;7.70;;
61104;SDS011;46987;32.638;-115.438;2023-04-15T04:14:03;24.05;;;7.85;;
61104;SDS011;46987;32.638;-115.438;2023-04-15T04:16:30;22.83;;;8.35;;
61104;SDS011;46987;32.638;-115.438;2023-04-15T04:18:59;29.55;;;9.18;;
61104;SDS011;46987;32.638;-115.438;2023-04-15T04:21:26;20.25;;;8.70;;
61104;SDS011;46987;32.638;-115.438;2023-04-15T04:23:53;25.17;;;10.55;;
61104;SDS011;46987;32.638;-115.438;2023-04-15T04:26:19;28.13;;;10.65;;
61104;SDS011;46987;32.638;-115.438;2023-04-15T04:28:46;27.08;;;11.55;;
61104;SDS011;46987;32.638;-115.438;2023-04-15T04:31:13;24.75;;;9.80;;
61104;SDS011;46987;32.638;-115.438;2023-04-15T04:33:40;23.85;;;8.57;;
61104;SDS011;46987;32.638;-115.438;2023-04-15T04:36:09;20.50;;;7.95;;
61104;SDS011;46987;32.638;-115.438;2023-04-15T04:38:35;23.63;;;7.30;;
61104;SDS011;46987;32.638;-115.438;2023-04-15T04:41:02;24.10;;;7.10;;
61104;SDS011;46987;32.638;-115.438;2023-04-15T04:43:29;26.63;;;8.65;;
61104;SDS011;46987;32.638;-115.438;2023-04-15T04:45:55;24.58;;;9.82;;
61104;SDS011;46987;32.638;-115.438;2023-04-15T04:48:22;27.50;;;9.60;;
61104;SDS011;46987;32.638;-115.438;2023-04-15T04:50:48;25.45;;;8.75;;
61104;SDS011;46987;32.638;-115.438;2023-04-15T04:53:17;23.23;;;8.98;;
61104;SDS011;46987;32.638;-115.438;2023-04-15T04:55:43;28.75;;;7.72;;
61104;SDS011;46987;32.638;-115.438;2023-04-15T04:58:10;35.67;;;8.60;;
61104;SDS011;46987;32.638;-115.438;2023-04-15T05:00:37;28.48;;;8.15;;
61104;SDS011;46987;32.638;-115.438;2023-04-15T05:03:05;31.75;;;8.88;;
61104;SDS011;46987;32.638;-115.438;2023-04-15T05:05:32;39.83;;;10.05;;
61104;SDS011;46987;32.638;-115.438;2023-04-15T05:08:00;31.42;;;8.35;;
61104;SDS011;46987;32.638;-115.438;2023-04-15T05:10:28;29.90;;;9.10;;
61104;SDS011;46987;32.638;-115.438;2023-04-15T05:12:55;24.30;;;8.00;;
61104;SDS011;46987;32.638;-115.438;2023-04-15T05:15:22;25.30;;;7.88;;
61104;SDS011;46987;32.638;-115.438;2023-04-15T05:17:48;26.23;;;8.50;;
61104;SDS011;46987;32.638;-115.438;2023-04-15T05:20:15;31.65;;;9.07;;
61104;SDS011;46987;32.638;-115.438;2023-04-15T05:22:42;29.65;;;8.88;;
61104;SDS011;46987;32.638;-115.438;2023-04-15T05:25:09;31.55;;;10.70;;
61104;SDS011;46987;32.638;-115.438;2023-04-15T05:27:37;31.40;;;9.73;;
61104;SDS011;46987;32.638;-115.438;2023-04-15T05:30:04;30.52;;;11.75;;
61104;SDS011;46987;32.638;-115.438;2023-04-15T05:32:32;37.70;;;10.00;;
61104;SDS011;46987;32.638;-115.438;2023-04-15T05:34:58;26.38;;;10.07;;
61104;SDS011;46987;32.638;-115.438;2023-04-15T05:37:25;34.13;;;9.55;;
61104;SDS011;46987;32.638;-115.438;2023-04-15T05:39:52;33.45;;;12.18;;
61104;SDS011;46987;32.638;-115.438;2023-04-15T05:42:19;38.25;;;11.48;;
61104;SDS011;46987;32.638;-115.438;2023-04-15T05:44:47;34.17;;;11.55;;
61104;SDS011;46987;32.638;-115.438;2023-04-15T05:47:14;31.35;;;10.05;;
61104;SDS011;46987;32.638;-115.438;2023-04-15T05:49:41;25.63;;;9.95;;
61104;SDS011;46987;32.638;-115.438;2023-04-15T05:52:08;23.13;;;9.27;;
61104;SDS011;46987;32.638;-115.438;2023-04-15T05:54:35;33.92;;;11.48;;
61104;SDS011;46987;32.638;-115.438;2023-04-15T05:57:02;31.05;;;9.15;;
61104;SDS011;46987;32.638;-115.438;2023-04-15T05:59:29;22.92;;;6.78;;
61104;SDS011;46987;32.638;-115.438;2023-04-15T06:01:58;21.20;;;6.75;;
61104;SDS011;46987;32.638;-115.438;2023-04-15T06:04:25;22.60;;;5.57;;
61104;SDS011;46987;32.638;-115.438;2023-04-15T06:06:52;17.35;;;5.03;;
61104;SDS011;46987;32.638;-115.438;2023-04-15T06:09:18;18.73;;;4.93;;
61104;SDS011;46987;32.638;-115.438;2023-04-15T06:11:45;17.80;;;4.55;;
61104;SDS011;46987;32.638;-115.438;2023-04-15T06:14:12;16.45;;;4.13;;
61104;SDS011;46987;32.638;-115.438;2023-04-15T06:16:39;16.50;;;4.07;;
61104;SDS011;46987;32.638;-115.438;2023-04-15T06:19:07;18.85;;;4.35;;
61104;SDS011;46987;32.638;-115.438;2023-04-15T06:21:34;14.10;;;4.20;;
61104;SDS011;46987;32.638;-115.438;2023-04-15T06:24:01;21.13;;;4.32;;
61104;SDS011;46987;32.638;-115.438;2023-04-15T06:26:28;18.65;;;5.05;;
61104;SDS011;46987;32.638;-115.438;2023-04-15T06:28:55;18.30;;;4.53;;
61104;SDS011;46987;32.638;-115.438;2023-04-15T06:31:22;16.13;;;4.35;;
61104;SDS011;46987;32.638;-115.438;2023-04-15T06:33:48;18.65;;;3.80;;
61104;SDS011;46987;32.638;-115.438;2023-04-15T06:36:17;17.60;;;4.15;;
61104;SDS011;46987;32.638;-115.438;2023-04-15T06:38:44;15.48;;;4.22;;
61104;SDS011;46987;32.638;-115.438;2023-04-15T06:41:11;18.80;;;5.05;;
61104;SDS011;46987;32.638;-115.438;2023-04-15T06:43:38;14.18;;;4.88;;
61104;SDS011;46987;32.638;-115.438;2023-04-15T06:46:05;11.13;;;3.55;;
61104;SDS011;46987;32.638;-115.438;2023-04-15T06:48:32;16.73;;;4.93;;
61104;SDS011;46987;32.638;-115.438;2023-04-15T06:50:58;17.98;;;4.75;;
61104;SDS011;46987;32.638;-115.438;2023-04-15T06:53:27;17.88;;;4.63;;
61104;SDS011;46987;32.638;-115.438;2023-04-15T06:55:54;11.95;;;4.63;;
61104;SDS011;46987;32.638;-115.438;2023-04-15T06:58:21;16.40;;;4.43;;
61104;SDS011;46987;32.638;-115.438;2023-04-15T07:00:48;19.42;;;4.28;;
61104;SDS011;46987;32.638;-115.438;2023-04-15T07:03:14;15.23;;;4.63;;
61104;SDS011;46987;32.638;-115.438;2023-04-15T07:05:41;16.05;;;4.43;;
61104;SDS011;46987;32.638;-115.438;2023-04-15T07:08:08;14.63;;;4.82;;
61104;SDS011;46987;32.638;-115.438;2023-04-15T07:10:37;21.27;;;4.82;;
61104;SDS011;46987;32.638;-115.438;2023-04-15T07:13:03;19.70;;;4.28;;
61104;SDS011;46987;32.638;-115.438;2023-04-15T07:15:30;16.55;;;4.43;;
61104;SDS011;46987;32.638;-115.438;2023-04-15T07:17:57;18.00;;;4.93;;
61104;SDS011;46987;32.638;-115.438;2023-04-15T07:20:24;12.65;;;4.10;;
61104;SDS011;46987;32.638;-115.438;2023-04-15T07:22:51;17.42;;;4.38;;
61104;SDS011;46987;32.638;-115.438;2023-04-15T07:25:18;17.83;;;4.18;;
61104;SDS011;46987;32.638;-115.438;2023-04-15T07:27:46;15.55;;;4.97;;
61104;SDS011;46987;32.638;-115.438;2023-04-15T07:30:13;16.60;;;4.80;;
61104;SDS011;46987;32.638;-115.438;2023-04-15T07:32:40;18.75;;;4.50;;
61104;SDS011;46987;32.638;-115.438;2023-04-15T07:35:07;14.55;;;5.57;;
61104;SDS011;46987;32.638;-115.438;2023-04-15T07:37:34;16.48;;;5.47;;
61104;SDS011;46987;32.638;-115.438;2023-04-15T07:40:01;16.20;;;4.85;;
61104;SDS011;46987;32.638;-115.438;2023-04-15T07:42:32;19.00;;;5.20;;
61104;SDS011;46987;32.638;-115.438;2023-04-15T07:45:00;16.38;;;5.72;;
61104;SDS011;46987;32.638;-115.438;2023-04-15T07:47:27;13.10;;;5.00;;
61104;SDS011;46987;32.638;-115.438;2023-04-15T07:49:54;15.40;;;4.38;;
61104;SDS011;46987;32.638;-115.438;2023-04-15T07:52:20;17.67;;;5.03;;
61104;SDS011;46987;32.638;-115.438;2023-04-15T07:54:47;15.02;;;5.00;;
61104;SDS011;46987;32.638;-115.438;2023-04-15T07:57:14;15.38;;;5.72;;
61104;SDS011;46987;32.638;-115.438;2023-04-15T07:59:42;14.68;;;4.80;;
61104;SDS011;46987;32.638;-115.438;2023-04-15T08:02:10;17.73;;;5.35;;
61104;SDS011;46987;32.638;-115.438;2023-04-15T08:04:37;28.15;;;6.28;;
61104;SDS011;46987;32.638;-115.438;2023-04-15T08:07:04;17.20;;;5.90;;
61104;SDS011;46987;32.638;-115.438;2023-04-15T08:09:31;13.38;;;4.53;;
61104;SDS011;46987;32.638;-115.438;2023-04-15T08:11:57;15.93;;;4.75;;
61104;SDS011;46987;32.638;-115.438;2023-04-15T08:14:24;14.57;;;4.78;;
61104;SDS011;46987;32.638;-115.438;2023-04-15T08:16:51;16.08;;;4.32;;
61104;SDS011;46987;32.638;-115.438;2023-04-15T08:19:19;18.55;;;5.07;;
61104;SDS011;46987;32.638;-115.438;2023-04-15T08:21:46;18.88;;;3.92;;
61104;SDS011;46987;32.638;-115.438;2023-04-15T08:24:13;17.20;;;4.82;;
61104;SDS011;46987;32.638;-115.438;2023-04-15T08:26:41;20.48;;;5.07;;
61104;SDS011;46987;32.638;-115.438;2023-04-15T08:29:08;20.13;;;5.35;;
61104;SDS011;46987;32.638;-115.438;2023-04-15T08:31:35;13.35;;;4.28;;
61104;SDS011;46987;32.638;-115.438;2023-04-15T08:34:01;18.73;;;6.43;;
61104;SDS011;46987;32.638;-115.438;2023-04-15T08:36:30;22.75;;;8.23;;
61104;SDS011;46987;32.638;-115.438;2023-04-15T08:38:57;21.50;;;6.97;;
61104;SDS011;46987;32.638;-115.438;2023-04-15T08:41:26;18.80;;;8.18;;
61104;SDS011;46987;32.638;-115.438;2023-04-15T08:43:56;17.77;;;7.50;;
61104;SDS011;46987;32.638;-115.438;2023-04-15T08:46:23;19.85;;;6.72;;
61104;SDS011;46987;32.638;-115.438;2023-04-15T08:48:50;21.35;;;7.38;;
61104;SDS011;46987;32.638;-115.438;2023-04-15T08:51:17;23.17;;;8.73;;
61104;SDS011;46987;32.638;-115.438;2023-04-15T08:53:46;28.20;;;8.77;;
61104;SDS011;46987;32.638;-115.438;2023-04-15T08:56:14;22.63;;;8.45;;
61104;SDS011;46987;32.638;-115.438;2023-04-15T08:58:44;22.25;;;8.50;;
61104;SDS011;46987;32.638;-115.438;2023-04-15T09:01:11;17.60;;;7.35;;
61104;SDS011;46987;32.638;-115.438;2023-04-15T09:03:38;22.00;;;7.72;;
61104;SDS011;46987;32.638;-115.438;2023-04-15T09:06:05;20.30;;;7.38;;
61104;SDS011;46987;32.638;-115.438;2023-04-15T09:08:32;19.85;;;6.93;;
61104;SDS011;46987;32.638;-115.438;2023-04-15T09:11:03;15.40;;;6.15;;
61104;SDS011;46987;32.638;-115.438;2023-04-15T09:13:30;19.63;;;6.53;;
61104;SDS011;46987;32.638;-115.438;2023-04-15T09:15:57;19.65;;;7.13;;
61104;SDS011;46987;32.638;-115.438;2023-04-15T09:18:26;18.98;;;7.00;;
61104;SDS011;46987;32.638;-115.438;2023-04-15T09:20:54;15.60;;;6.07;;
61104;SDS011;46987;32.638;-115.438;2023-04-15T09:23:20;19.85;;;6.55;;
61104;SDS011;46987;32.638;-115.438;2023-04-15T09:25:47;17.98;;;6.38;;
61104;SDS011;46987;32.638;-115.438;2023-04-15T09:28:22;18.05;;;7.13;;
61104;SDS011;46987;32.638;-115.438;2023-04-15T09:30:50;13.43;;;6.05;;
61104;SDS011;46987;32.638;-115.438;2023-04-15T09:33:17;16.98;;;6.28;;
61104;SDS011;46987;32.638;-115.438;2023-04-15T09:35:47;13.93;;;6.05;;
61104;SDS011;46987;32.638;-115.438;2023-04-15T09:38:21;13.77;;;5.95;;
61104;SDS011;46987;32.638;-115.438;2023-04-15T09:40:48;20.75;;;6.40;;
61104;SDS011;46987;32.638;-115.438;2023-04-15T09:43:16;19.13;;;6.63;;
61104;SDS011;46987;32.638;-115.438;2023-04-15T09:45:46;19.15;;;5.80;;
61104;SDS011;46987;32.638;-115.438;2023-04-15T09:48:17;13.57;;;6.25;;
61104;SDS011;46987;32.638;-115.438;2023-04-15T09:50:44;15.30;;;5.68;;
61104;SDS011;46987;32.638;-115.438;2023-04-15T09:53:11;21.48;;;5.68;;
61104;SDS011;46987;32.638;-115.438;2023-04-15T09:55:44;25.38;;;5.47;;
61104;SDS011;46987;32.638;-115.438;2023-04-15T09:58:18;15.68;;;5.28;;
61104;SDS011;46987;32.638;-115.438;2023-04-15T10:00:46;19.33;;;5.40;;
61104;SDS011;46987;32.638;-115.438;2023-04-15T10:03:12;14.20;;;4.85;;
61104;SDS011;46987;32.638;-115.438;2023-04-15T10:05:40;19.67;;;5.85;;
61104;SDS011;46987;32.638;-115.438;2023-04-15T10:08:07;20.35;;;6.50;;
61104;SDS011;46987;32.638;-115.438;2023-04-15T10:10:34;16.50;;;5.78;;
61104;SDS011;46987;32.638;-115.438;2023-04-15T10:13:01;17.42;;;5.95;;
61104;SDS011;46987;32.638;-115.438;2023-04-15T10:15:29;18.42;;;6.05;;
61104;SDS011;46987;32.638;-115.438;2023-04-15T10:17:56;15.82;;;5.38;;
61104;SDS011;46987;32.638;-115.438;2023-04-15T10:20:24;19.60;;;5.90;;
61104;SDS011;46987;32.638;-115.438;2023-04-15T10:22:51;18.40;;;5.70;;
61104;SDS011;46987;32.638;-115.438;2023-04-15T10:25:18;20.30;;;6.20;;
61104;SDS011;46987;32.638;-115.438;2023-04-15T10:27:45;16.30;;;5.40;;
61104;SDS011;46987;32.638;-115.438;2023-04-15T10:30:13;16.10;;;5.28;;
61104;SDS011;46987;32.638;-115.438;2023-04-15T10:32:42;22.48;;;9.10;;
61104;SDS011;46987;32.638;-115.438;2023-04-15T10:35:09;21.58;;;8.88;;
61104;SDS011;46987;32.638;-115.438;2023-04-15T10:37:37;22.88;;;11.45;;
61104;SDS011;46987;32.638;-115.438;2023-04-15T10:42:52;32.17;;;12.68;;
61104;SDS011;46987;32.638;-115.438;2023-04-15T10:45:19;21.92;;;11.00;;
61104;SDS011;46987;32.638;-115.438;2023-04-15T10:47:47;19.40;;;10.77;;
61104;SDS011;46987;32.638;-115.438;2023-04-15T10:50:16;26.00;;;10.13;;
61104;SDS011;46987;32.638;-115.438;2023-04-15T10:52:44;24.90;;;10.80;;
61104;SDS011;46987;32.638;-115.438;2023-04-15T10:55:12;21.23;;;9.63;;
61104;SDS011;46987;32.638;-115.438;2023-04-15T10:57:39;22.95;;;10.00;;
61104;SDS011;46987;32.638;-115.438;2023-04-15T11:00:10;21.20;;;9.18;;
61104;SDS011;46987;32.638;-115.438;2023-04-15T11:02:38;29.40;;;10.63;;
61104;SDS011;46987;32.638;-115.438;2023-04-15T11:05:07;22.67;;;8.63;;
61104;SDS011;46987;32.638;-115.438;2023-04-15T11:07:35;26.90;;;9.45;;
61104;SDS011;46987;32.638;-115.438;2023-04-15T11:10:02;21.88;;;8.70;;
61104;SDS011;46987;32.638;-115.438;2023-04-15T11:12:33;24.25;;;8.05;;
61104;SDS011;46987;32.638;-115.438;2023-04-15T11:17:42;18.17;;;7.50;;
61104;SDS011;46987;32.638;-115.438;2023-04-15T11:20:10;26.15;;;6.95;;
61104;SDS011;46987;32.638;-115.438;2023-04-15T11:22:45;20.85;;;6.63;;
61104;SDS011;46987;32.638;-115.438;2023-04-15T11:25:21;20.38;;;6.63;;
61104;SDS011;46987;32.638;-115.438;2023-04-15T11:27:47;26.08;;;6.72;;
61104;SDS011;46987;32.638;-115.438;2023-04-15T11:30:18;17.25;;;7.13;;
61104;SDS011;46987;32.638;-115.438;2023-04-15T11:32:48;27.23;;;6.90;;
61104;SDS011;46987;32.638;-115.438;2023-04-15T11:35:17;21.55;;;6.53;;
61104;SDS011;46987;32.638;-115.438;2023-04-15T11:37:44;27.38;;;7.03;;
61104;SDS011;46987;32.638;-115.438;2023-04-15T11:40:21;18.15;;;7.38;;
61104;SDS011;46987;32.638;-115.438;2023-04-15T11:42:59;29.63;;;7.93;;
61104;SDS011;46987;32.638;-115.438;2023-04-15T11:45:28;18.55;;;7.35;;
61104;SDS011;46987;32.638;-115.438;2023-04-15T11:47:57;18.98;;;6.88;;
61104;SDS011;46987;32.638;-115.438;2023-04-15T11:50:32;23.05;;;8.23;;
61104;SDS011;46987;32.638;-115.438;2023-04-15T11:53:00;24.55;;;8.30;;
61104;SDS011;46987;32.638;-115.438;2023-04-15T11:55:27;25.63;;;7.82;;
61104;SDS011;46987;32.638;-115.438;2023-04-15T11:58:09;19.33;;;7.53;;
61104;SDS011;46987;32.638;-115.438;2023-04-15T12:00:37;23.20;;;8.32;;
61104;SDS011;46987;32.638;-115.438;2023-04-15T12:03:11;27.27;;;8.65;;
61104;SDS011;46987;32.638;-115.438;2023-04-15T12:08:21;23.25;;;9.60;;
61104;SDS011;46987;32.638;-115.438;2023-04-15T12:10:48;24.00;;;9.38;;
61104;SDS011;46987;32.638;-115.438;2023-04-15T12:13:14;21.38;;;9.60;;
61104;SDS011;46987;32.638;-115.438;2023-04-15T12:15:41;24.63;;;9.88;;
61104;SDS011;46987;32.638;-115.438;2023-04-15T12:18:15;30.23;;;8.73;;
61104;SDS011;46987;32.638;-115.438;2023-04-15T12:20:43;22.85;;;8.38;;
61104;SDS011;46987;32.638;-115.438;2023-04-15T12:23:10;26.05;;;9.60;;
61104;SDS011;46987;32.638;-115.438;2023-04-15T12:25:38;22.13;;;8.05;;
61104;SDS011;46987;32.638;-115.438;2023-04-15T12:28:09;25.35;;;8.25;;
61104;SDS011;46987;32.638;-115.438;2023-04-15T12:30:36;24.88;;;9.05;;
61104;SDS011;46987;32.638;-115.438;2023-04-15T12:33:13;24.27;;;8.88;;
61104;SDS011;46987;32.638;-115.438;2023-04-15T12:35:40;19.85;;;7.88;;
61104;SDS011;46987;32.638;-115.438;2023-04-15T12:38:07;23.15;;;9.13;;
61104;SDS011;46987;32.638;-115.438;2023-04-15T12:40:35;25.13;;;8.00;;
61104;SDS011;46987;32.638;-115.438;2023-04-15T12:43:04;23.58;;;8.55;;
61104;SDS011;46987;32.638;-115.438;2023-04-15T12:45:31;21.20;;;9.13;;
61104;SDS011;46987;32.638;-115.438;2023-04-15T12:47:57;19.23;;;9.50;;
61104;SDS011;46987;32.638;-115.438;2023-04-15T12:50:24;23.40;;;8.57;;
61104;SDS011;46987;32.638;-115.438;2023-04-15T12:52:51;27.48;;;8.98;;
61104;SDS011;46987;32.638;-115.438;2023-04-15T12:55:17;28.80;;;9.45;;
61104;SDS011;46987;32.638;-115.438;2023-04-15T12:57:44;30.83;;;9.82;;
61104;SDS011;46987;32.638;-115.438;2023-04-15T13:00:13;30.45;;;9.07;;
61104;SDS011;46987;32.638;-115.438;2023-04-15T13:02:40;25.25;;;8.88;;
61104;SDS011;46987;32.638;-115.438;2023-04-15T13:05:09;22.20;;;8.40;;
61104;SDS011;46987;32.638;-115.438;2023-04-15T13:07:36;26.58;;;8.63;;
61104;SDS011;46987;32.638;-115.438;2023-04-15T13:10:02;23.75;;;8.45;;
61104;SDS011;46987;32.638;-115.438;2023-04-15T13:12:29;35.03;;;10.30;;
61104;SDS011;46987;32.638;-115.438;2023-04-15T13:15:01;30.58;;;9.75;;
61104;SDS011;46987;32.638;-115.438;2023-04-15T13:17:30;28.80;;;10.25;;
61104;SDS011;46987;32.638;-115.438;2023-04-15T13:19:56;35.72;;;11.43;;
61104;SDS011;46987;32.638;-115.438;2023-04-15T13:22:23;34.75;;;13.00;;
61104;SDS011;46987;32.638;-115.438;2023-04-15T13:24:49;36.03;;;12.45;;
61104;SDS011;46987;32.638;-115.438;2023-04-15T13:27:16;30.70;;;13.63;;
61104;SDS011;46987;32.638;-115.438;2023-04-15T13:29:43;29.98;;;11.32;;
61104;SDS011;46987;32.638;-115.438;2023-04-15T13:32:10;33.10;;;11.80;;
61104;SDS011;46987;32.638;-115.438;2023-04-15T13:34:38;34.08;;;11.45;;
61104;SDS011;46987;32.638;-115.438;2023-04-15T13:37:05;33.35;;;12.75;;
61104;SDS011;46987;32.638;-115.438;2023-04-15T13:39:32;37.65;;;11.10;;
61104;SDS011;46987;32.638;-115.438;2023-04-15T13:41:59;46.00;;;12.65;;
61104;SDS011;46987;32.638;-115.438;2023-04-15T13:44:26;32.95;;;11.55;;
61104;SDS011;46987;32.638;-115.438;2023-04-15T13:46:52;33.47;;;12.00;;
61104;SDS011;46987;32.638;-115.438;2023-04-15T13:49:19;30.92;;;11.40;;
61104;SDS011;46987;32.638;-115.438;2023-04-15T13:51:48;32.60;;;13.15;;
61104;SDS011;46987;32.638;-115.438;2023-04-15T13:54:14;32.40;;;13.88;;
61104;SDS011;46987;32.638;-115.438;2023-04-15T13:56:41;33.30;;;10.95;;
61104;SDS011;46987;32.638;-115.438;2023-04-15T13:59:08;37.47;;;13.45;;
61104;SDS011;46987;32.638;-115.438;2023-04-15T14:01:34;28.13;;;12.45;;
61104;SDS011;46987;32.638;-115.438;2023-04-15T14:04:01;33.97;;;12.05;;
61104;SDS011;46987;32.638;-115.438;2023-04-15T14:06:28;30.25;;;12.50;;